Time;durP1;ratioP1;P1;durP2;ratioP2;P2;SDS_P1;SDS_P2;PMS_P1;PMS_P2;Temp;Humidity;BMP_temperature;BMP_pressure;BME280_temperature;BME280_humidity;BME280_pressure;Samples;Min_cycle;Max_cycle;Signal;HPM_P1;HPM_P2
2023/05/04 00:01:56;;;;;;;0.10;0.10;;;;;;;;;;5106607;28;20307;-77
2023/05/04 00:04:22;;;;;;;0.10;0.10;;;;;;;;;;5106399;28;20475;-77
2023/05/04 00:06:50;;;;;;;0.10;0.10;;;;;;;;;;5106692;28;20309;-77
2023/05/04 00:09:17;;;;;;;0.10;0.10;;;;;;;;;;5111062;28;20210;-77
2023/05/04 00:11:43;;;;;;;0.10;0.10;;;;;;;;;;5109525;28;20242;-78
2023/05/04 00:14:10;;;;;;;0.10;0.10;;;;;;;;;;5111597;28;20231;-77
2023/05/04 00:16:36;;;;;;;0.10;0.10;;;;;;;;;;5108755;28;20261;-77
2023/05/04 00:19:03;;;;;;;0.10;0.10;;;;;;;;;;5112543;28;20234;-77
2023/05/04 00:21:29;;;;;;;0.10;0.10;;;;;;;;;;5107579;28;20505;-78
2023/05/04 00:23:57;;;;;;;0.10;0.10;;;;;;;;;;5113266;28;20290;-77
2023/05/04 00:26:23;;;;;;;0.17;0.17;;;;;;;;;;5106728;28;20253;-77
2023/05/04 00:28:50;;;;;;;0.10;0.10;;;;;;;;;;5113887;28;20241;-77
2023/05/04 00:31:17;;;;;;;0.10;0.10;;;;;;;;;;5105556;28;20308;-77
2023/05/04 00:33:44;;;;;;;0.10;0.10;;;;;;;;;;5114638;28;20273;-77
2023/05/04 00:36:12;;;;;;;0.10;0.10;;;;;;;;;;5104765;28;20242;-77
2023/05/04 00:38:46;;;;;;;0.10;0.10;;;;;;;;;;5114940;28;20282;-77
2023/05/04 00:41:14;;;;;;;0.10;0.10;;;;;;;;;;5105097;28;20237;-77
2023/05/04 00:43:41;;;;;;;0.10;0.10;;;;;;;;;;5114749;28;20302;-77
2023/05/04 00:46:07;;;;;;;0.10;0.10;;;;;;;;;;5104669;28;20245;-77
2023/05/04 00:48:34;;;;;;;0.10;0.10;;;;;;;;;;5115317;28;20379;-77
2023/05/04 00:51:00;;;;;;;0.10;0.10;;;;;;;;;;5103646;28;20283;-77
2023/05/04 00:53:27;;;;;;;0.10;0.10;;;;;;;;;;5116091;28;20442;-77
2023/05/04 00:55:53;;;;;;;0.10;0.10;;;;;;;;;;5102818;28;20327;-77
2023/05/04 00:58:21;;;;;;;0.10;0.10;;;;;;;;;;5116942;28;20261;-77
2023/05/04 01:00:47;;;;;;;0.10;0.10;;;;;;;;;;5101394;28;20300;-77
2023/05/04 01:03:14;;;;;;;0.10;0.10;;;;;;;;;;5117622;28;20232;-77
2023/05/04 01:05:48;;;;;;;0.10;0.10;;;;;;;;;;5100904;28;20253;-77
2023/05/04 01:08:15;;;;;;;0.20;0.20;;;;;;;;;;5117147;28;20261;-77
2023/05/04 01:10:44;;;;;;;0.10;0.10;;;;;;;;;;5100753;28;20327;-77
2023/05/04 01:13:12;;;;;;;0.10;0.10;;;;;;;;;;5117722;28;20206;-77
2023/05/04 01:15:40;;;;;;;0.10;0.10;;;;;;;;;;5100285;28;20245;-78
2023/05/04 01:18:06;;;;;;;0.10;0.10;;;;;;;;;;5117935;28;20277;-77
2023/05/04 01:20:35;;;;;;;0.10;0.10;;;;;;;;;;5098723;28;20246;-77
2023/05/04 01:23:03;;;;;;;0.10;0.10;;;;;;;;;;5119110;28;20203;-78
2023/05/04 01:25:32;;;;;;;0.10;0.10;;;;;;;;;;5098821;28;20300;-77
2023/05/04 01:27:59;;;;;;;0.10;0.10;;;;;;;;;;5118982;28;20215;-77
2023/05/04 01:30:29;;;;;;;0.10;0.10;;;;;;;;;;5098577;28;20234;-77
2023/05/04 01:32:57;;;;;;;0.10;0.10;;;;;;;;;;5119179;28;20206;-77
2023/05/04 01:35:24;;;;;;;0.10;0.10;;;;;;;;;;5098056;28;20198;-78
2023/05/04 01:37:50;;;;;;;0.10;0.10;;;;;;;;;;5119631;28;20210;-77
2023/05/04 01:40:18;;;;;;;0.10;0.10;;;;;;;;;;5097214;28;20460;-77
2023/05/04 01:42:44;;;;;;;0.10;0.10;;;;;;;;;;5120897;28;20226;-77
2023/05/04 01:45:11;;;;;;;0.10;0.10;;;;;;;;;;5095850;28;20278;-77
2023/05/04 01:47:38;;;;;;;0.10;0.10;;;;;;;;;;5121482;28;20270;-77
2023/05/04 01:50:05;;;;;;;0.10;0.10;;;;;;;;;;5105992;28;20273;-77
2023/05/04 01:52:32;;;;;;;0.10;0.10;;;;;;;;;;5111258;28;20249;-77
2023/05/04 01:54:58;;;;;;;0.10;0.10;;;;;;;;;;5106192;28;20265;-77
2023/05/04 01:57:26;;;;;;;0.10;0.10;;;;;;;;;;5111294;28;20311;-77
2023/05/04 01:59:52;;;;;;;0.10;0.10;;;;;;;;;;5106221;28;20274;-77
2023/05/04 02:02:19;;;;;;;0.10;0.10;;;;;;;;;;5111238;28;20301;-78
2023/05/04 02:04:45;;;;;;;0.10;0.10;;;;;;;;;;5105601;28;20228;-77
2023/05/04 02:07:12;;;;;;;0.40;0.40;;;;;;;;;;5111198;28;20267;-77
2023/05/04 02:09:39;;;;;;;0.10;0.10;;;;;;;;;;5105984;28;20415;-77
2023/05/04 02:12:05;;;;;;;0.10;0.10;;;;;;;;;;5110743;28;20418;-77
2023/05/04 02:14:33;;;;;;;0.10;0.10;;;;;;;;;;5106044;28;20230;-77
2023/05/04 02:16:59;;;;;;;0.10;0.10;;;;;;;;;;5109876;28;20240;-77
2023/05/04 02:19:26;;;;;;;0.10;0.10;;;;;;;;;;5106689;28;20198;-77
2023/05/04 02:21:52;;;;;;;0.10;0.10;;;;;;;;;;5108912;28;20306;-77
2023/05/04 02:24:19;;;;;;;0.13;0.13;;;;;;;;;;5107388;28;20297;-77
2023/05/04 02:26:45;;;;;;;0.10;0.10;;;;;;;;;;5107934;28;20258;-77
2023/05/04 02:29:12;;;;;;;0.10;0.10;;;;;;;;;;5108208;28;20235;-77
2023/05/04 02:31:40;;;;;;;0.27;0.27;;;;;;;;;;5106449;28;20254;-77
2023/05/04 02:34:06;;;;;;;0.20;0.20;;;;;;;;;;5109044;28;20243;-77
2023/05/04 02:36:33;;;;;;;0.10;0.10;;;;;;;;;;5105866;28;20241;-77
2023/05/04 02:39:00;;;;;;;0.10;0.10;;;;;;;;;;5109591;28;20214;-77
2023/05/04 02:41:26;;;;;;;0.13;0.13;;;;;;;;;;5105080;28;20242;-77
2023/05/04 02:43:53;;;;;;;0.10;0.10;;;;;;;;;;5110449;28;20211;-77
2023/05/04 02:46:19;;;;;;;0.10;0.10;;;;;;;;;;5104027;28;20490;-77
2023/05/04 02:48:47;;;;;;;0.10;0.10;;;;;;;;;;5111271;28;20247;-77
2023/05/04 02:51:13;;;;;;;0.13;0.13;;;;;;;;;;5103159;28;20253;-77
2023/05/04 02:53:40;;;;;;;0.10;0.10;;;;;;;;;;5112004;28;20427;-77
2023/05/04 02:56:06;;;;;;;0.10;0.10;;;;;;;;;;5102282;28;20238;-78
2023/05/04 02:58:32;;;;;;;0.10;0.10;;;;;;;;;;5112653;28;20290;-77
2023/05/04 03:00:59;;;;;;;0.10;0.10;;;;;;;;;;5101051;28;20308;-77
2023/05/04 03:03:26;;;;;;;0.10;0.10;;;;;;;;;;5113687;28;20209;-77
2023/05/04 03:05:53;;;;;;;0.10;0.10;;;;;;;;;;5100049;28;20439;-77
2023/05/04 03:08:20;;;;;;;0.10;0.10;;;;;;;;;;5114175;28;20278;-78
2023/05/04 03:10:46;;;;;;;0.10;0.10;;;;;;;;;;5099368;28;20605;-77
2023/05/04 03:13:13;;;;;;;0.10;0.10;;;;;;;;;;5115240;28;20440;-77
2023/05/04 03:15:39;;;;;;;4.83;4.63;;;;;;;;;;5098075;28;20259;-77
2023/05/04 03:18:06;;;;;;;0.10;0.10;;;;;;;;;;5116042;28;20502;-78
2023/05/04 03:20:32;;;;;;;0.10;0.10;;;;;;;;;;5097316;28;20247;-77
2023/05/04 03:23:00;;;;;;;0.10;0.10;;;;;;;;;;5116676;28;20211;-77
2023/05/04 03:25:26;;;;;;;0.10;0.10;;;;;;;;;;5096359;28;20473;-77
2023/05/04 03:27:53;;;;;;;0.10;0.10;;;;;;;;;;5117668;28;20207;-77
2023/05/04 03:30:19;;;;;;;0.10;0.10;;;;;;;;;;5095523;28;20383;-76
2023/05/04 03:32:47;;;;;;;0.10;0.10;;;;;;;;;;5118358;28;20486;-77
2023/05/04 03:35:13;;;;;;;0.10;0.10;;;;;;;;;;5094236;28;20229;-76
2023/05/04 03:37:40;;;;;;;0.10;0.10;;;;;;;;;;5119091;28;20213;-77
2023/05/04 03:40:08;;;;;;;0.10;0.10;;;;;;;;;;5104233;28;20390;-77
2023/05/04 03:42:36;;;;;;;0.10;0.10;;;;;;;;;;5091745;28;20299;-77
2023/05/04 03:45:03;;;;;;;0.10;0.10;;;;;;;;;;5103770;28;20229;-78
2023/05/04 03:47:29;;;;;;;0.10;0.10;;;;;;;;;;5109371;28;20300;-77
2023/05/04 03:49:56;;;;;;;0.10;0.10;;;;;;;;;;5104025;28;20238;-77
2023/05/04 03:52:22;;;;;;;0.10;0.10;;;;;;;;;;5109089;28;20277;-78
2023/05/04 03:54:48;;;;;;;0.17;0.17;;;;;;;;;;5104243;28;20239;-77
2023/05/04 03:57:16;;;;;;;0.10;0.10;;;;;;;;;;5108946;28;20252;-77
2023/05/04 03:59:43;;;;;;;0.77;0.53;;;;;;;;;;5103675;28;20240;-77
2023/05/04 04:02:09;;;;;;;0.10;0.10;;;;;;;;;;5108756;28;20259;-77
2023/05/04 04:04:36;;;;;;;0.10;0.10;;;;;;;;;;5103866;28;20235;-77
2023/05/04 04:07:02;;;;;;;0.10;0.10;;;;;;;;;;5107844;28;20247;-77
2023/05/04 04:09:29;;;;;;;0.10;0.10;;;;;;;;;;5104953;28;20390;-77
2023/05/04 04:11:55;;;;;;;0.10;0.10;;;;;;;;;;5107381;28;20260;-77
2023/05/04 04:14:23;;;;;;;0.10;0.10;;;;;;;;;;5105529;28;20227;-77
2023/05/04 04:16:49;;;;;;;0.10;0.10;;;;;;;;;;5106742;28;20457;-77
2023/05/04 04:19:16;;;;;;;0.10;0.10;;;;;;;;;;5106208;28;20439;-77
2023/05/04 04:21:42;;;;;;;0.10;0.10;;;;;;;;;;5105540;28;20258;-77
2023/05/04 04:24:08;;;;;;;0.10;0.10;;;;;;;;;;5107087;28;20269;-77
2023/05/04 04:26:35;;;;;;;0.10;0.10;;;;;;;;;;5104475;28;20302;-77
2023/05/04 04:29:02;;;;;;;3.00;2.90;;;;;;;;;;5107839;28;20203;-77
2023/05/04 04:31:30;;;;;;;0.10;0.10;;;;;;;;;;5103688;28;20243;-77
2023/05/04 04:33:56;;;;;;;0.10;0.10;;;;;;;;;;5108645;28;20225;-77
2023/05/04 04:36:23;;;;;;;0.10;0.10;;;;;;;;;;5102764;28;20239;-77
2023/05/04 04:38:50;;;;;;;0.10;0.10;;;;;;;;;;5109216;28;20251;-76
2023/05/04 04:41:16;;;;;;;0.10;0.10;;;;;;;;;;5101992;28;20316;-77
2023/05/04 04:43:43;;;;;;;0.20;0.20;;;;;;;;;;5110110;28;20270;-77
2023/05/04 04:46:09;;;;;;;0.30;0.30;;;;;;;;;;5100793;28;20251;-77
2023/05/04 04:48:37;;;;;;;0.10;0.10;;;;;;;;;;5110806;28;20205;-77
2023/05/04 04:51:04;;;;;;;0.10;0.10;;;;;;;;;;5100413;28;20267;-77
2023/05/04 04:53:30;;;;;;;0.10;0.10;;;;;;;;;;5113276;28;20205;-77
2023/05/04 04:55:57;;;;;;;0.40;0.40;;;;;;;;;;5103008;28;20241;-77
2023/05/04 04:58:23;;;;;;;0.10;0.10;;;;;;;;;;5116386;28;20231;-77
2023/05/04 05:00:50;;;;;;;0.10;0.10;;;;;;;;;;5101967;28;20245;-77
2023/05/04 05:03:17;;;;;;;0.10;0.10;;;;;;;;;;5117174;28;20214;-76
2023/05/04 05:05:45;;;;;;;0.10;0.10;;;;;;;;;;5101212;28;20253;-77
2023/05/04 05:08:11;;;;;;;0.10;0.10;;;;;;;;;;5117774;28;20210;-77
2023/05/04 05:10:37;;;;;;;0.10;0.10;;;;;;;;;;5100224;28;20306;-77
2023/05/04 05:13:04;;;;;;;0.10;0.10;;;;;;;;;;5118775;28;20231;-77
2023/05/04 05:15:30;;;;;;;0.10;0.10;;;;;;;;;;5099490;28;20474;-77
2023/05/04 05:17:57;;;;;;;0.10;0.10;;;;;;;;;;5119508;28;20447;-77
2023/05/04 05:20:24;;;;;;;0.10;0.10;;;;;;;;;;5098449;28;20226;-77
2023/05/04 05:22:51;;;;;;;0.37;0.37;;;;;;;;;;5120307;28;22337;-76
2023/05/04 05:25:21;;;;;;;0.10;0.10;;;;;;;;;;5097528;28;20304;-77
2023/05/04 05:27:48;;;;;;;0.10;0.10;;;;;;;;;;5120258;28;20194;-77
2023/05/04 05:30:15;;;;;;;0.60;0.60;;;;;;;;;;5097026;28;20274;-77
2023/05/04 05:32:41;;;;;;;0.70;0.70;;;;;;;;;;5120924;28;20194;-77
2023/05/04 05:35:09;;;;;;;0.10;0.10;;;;;;;;;;5102331;28;20217;-76
2023/05/04 05:37:35;;;;;;;0.20;0.20;;;;;;;;;;5121724;28;20225;-77
2023/05/04 05:40:06;;;;;;;0.10;0.10;;;;;;;;;;5106131;28;20205;-76
2023/05/04 05:42:32;;;;;;;0.10;0.10;;;;;;;;;;5094599;28;20256;-75
2023/05/04 05:45:00;;;;;;;0.13;0.13;;;;;;;;;;5106449;28;20569;-74
2023/05/04 05:47:27;;;;;;;0.30;0.30;;;;;;;;;;5111446;28;20243;-76
2023/05/04 05:49:53;;;;;;;0.10;0.10;;;;;;;;;;5106478;28;20201;-76
2023/05/04 05:52:19;;;;;;;0.10;0.10;;;;;;;;;;5111353;28;20246;-76
2023/05/04 05:54:46;;;;;;;0.10;0.10;;;;;;;;;;5106155;28;20526;-74
2023/05/04 05:57:14;;;;;;;0.20;0.20;;;;;;;;;;5111296;28;20317;-74
2023/05/04 05:59:41;;;;;;;0.17;0.17;;;;;;;;;;5106096;28;20220;-75
2023/05/04 06:02:07;;;;;;;0.10;0.10;;;;;;;;;;5110757;28;20239;-74
2023/05/04 06:04:34;;;;;;;0.20;0.20;;;;;;;;;;5105243;28;20272;-75
2023/05/04 06:07:00;;;;;;;0.10;0.10;;;;;;;;;;5109856;28;20267;-74
2023/05/04 06:09:27;;;;;;;0.30;0.30;;;;;;;;;;5106907;28;20232;-75
2023/05/04 06:11:53;;;;;;;0.10;0.10;;;;;;;;;;5109028;28;20241;-75
2023/05/04 06:14:21;;;;;;;0.10;0.10;;;;;;;;;;5107678;28;20243;-75
2023/05/04 06:16:47;;;;;;;0.13;0.13;;;;;;;;;;5108207;28;20505;-74
2023/05/04 06:19:13;;;;;;;0.10;0.10;;;;;;;;;;5108354;28;20204;-74
2023/05/04 06:21:40;;;;;;;0.10;0.10;;;;;;;;;;5106928;28;20248;-74
2023/05/04 06:24:06;;;;;;;0.10;0.10;;;;;;;;;;5109339;28;20430;-75
2023/05/04 06:26:33;;;;;;;0.10;0.10;;;;;;;;;;5105955;28;20514;-75
2023/05/04 06:28:59;;;;;;;0.10;0.10;;;;;;;;;;5109591;28;20280;-75
2023/05/04 06:31:27;;;;;;;0.87;0.87;;;;;;;;;;5105074;28;20248;-75
2023/05/04 06:33:53;;;;;;;0.97;0.97;;;;;;;;;;5110732;28;20390;-75
2023/05/04 06:36:20;;;;;;;0.10;0.10;;;;;;;;;;5104041;28;20240;-75
2023/05/04 06:38:47;;;;;;;0.10;0.10;;;;;;;;;;5110783;28;20221;-74
2023/05/04 06:41:13;;;;;;;0.10;0.10;;;;;;;;;;5103201;28;20238;-75
2023/05/04 06:43:41;;;;;;;0.13;0.13;;;;;;;;;;5112156;28;20218;-75
2023/05/04 06:46:07;;;;;;;0.10;0.10;;;;;;;;;;5102361;28;20249;-75
2023/05/04 06:48:35;;;;;;;0.10;0.10;;;;;;;;;;5113011;28;20238;-74
2023/05/04 06:51:02;;;;;;;0.10;0.10;;;;;;;;;;5101187;28;20312;-74
2023/05/04 06:53:28;;;;;;;0.10;0.10;;;;;;;;;;5113423;28;20234;-75
2023/05/04 06:55:54;;;;;;;0.10;0.10;;;;;;;;;;5100356;28;20275;-75
2023/05/04 06:58:21;;;;;;;0.53;0.30;;;;;;;;;;5114259;28;20222;-74
2023/05/04 07:00:47;;;;;;;0.10;0.10;;;;;;;;;;5099169;28;20238;-72
2023/05/04 07:03:14;;;;;;;0.20;0.20;;;;;;;;;;5115452;28;20282;-73
2023/05/04 07:05:43;;;;;;;0.10;0.10;;;;;;;;;;5098434;28;20254;-73
2023/05/04 07:08:10;;;;;;;0.27;0.27;;;;;;;;;;5115644;28;20207;-74
2023/05/04 07:10:36;;;;;;;0.10;0.10;;;;;;;;;;5097601;28;20271;-75
2023/05/04 07:13:03;;;;;;;0.10;0.10;;;;;;;;;;5116349;28;20209;-74
2023/05/04 07:15:30;;;;;;;0.10;0.10;;;;;;;;;;5096472;28;20291;-75
2023/05/04 07:17:56;;;;;;;0.10;0.10;;;;;;;;;;5116456;28;20209;-75
2023/05/04 07:20:23;;;;;;;0.10;0.10;;;;;;;;;;5095725;28;20273;-75
2023/05/04 07:22:53;;;;;;;0.10;0.10;;;;;;;;;;5118048;28;20223;-75
2023/05/04 07:25:20;;;;;;;0.40;0.40;;;;;;;;;;5095334;28;20197;-75
2023/05/04 07:27:47;;;;;;;0.37;0.37;;;;;;;;;;5118217;28;20529;-75
2023/05/04 07:30:14;;;;;;;0.10;0.10;;;;;;;;;;5094242;28;20267;-74
2023/05/04 07:32:40;;;;;;;0.10;0.10;;;;;;;;;;5118899;28;20263;-74
2023/05/04 07:35:07;;;;;;;0.10;0.10;;;;;;;;;;5103962;28;20271;-74
2023/05/04 07:37:34;;;;;;;0.10;0.10;;;;;;;;;;5092206;28;20219;-72
2023/05/04 07:40:04;;;;;;;0.10;0.10;;;;;;;;;;5104247;28;20200;-73
2023/05/04 07:42:30;;;;;;;0.10;0.10;;;;;;;;;;5109263;28;20246;-73
2023/05/04 07:44:57;;;;;;;0.10;0.10;;;;;;;;;;5104178;28;20434;-73
2023/05/04 07:47:23;;;;;;;0.10;0.10;;;;;;;;;;5109117;28;20234;-73
2023/05/04 07:49:50;;;;;;;0.10;0.10;;;;;;;;;;5104209;28;20206;-73
2023/05/04 07:52:16;;;;;;;0.20;0.20;;;;;;;;;;5109104;28;20310;-73
2023/05/04 07:54:42;;;;;;;0.10;0.10;;;;;;;;;;5104129;28;20239;-73
2023/05/04 07:57:10;;;;;;;0.10;0.10;;;;;;;;;;5109141;28;20247;-73
2023/05/04 07:59:37;;;;;;;0.10;0.10;;;;;;;;;;5104125;28;20209;-72
2023/05/04 08:02:03;;;;;;;0.10;0.10;;;;;;;;;;5108460;28;20247;-73
2023/05/04 08:04:29;;;;;;;0.10;0.10;;;;;;;;;;5104692;28;20390;-72
2023/05/04 08:06:56;;;;;;;0.10;0.10;;;;;;;;;;5107517;28;20232;-72
2023/05/04 08:09:22;;;;;;;0.10;0.10;;;;;;;;;;5105359;28;20210;-73
2023/05/04 08:11:48;;;;;;;0.10;0.10;;;;;;;;;;5106585;28;20578;-72
2023/05/04 08:14:16;;;;;;;0.10;0.10;;;;;;;;;;5106242;28;20223;-72
2023/05/04 08:16:43;;;;;;;0.00;0.00;;;;;;;;;;5105698;28;20257;-72
2023/05/04 08:19:10;;;;;;;0.10;0.10;;;;;;;;;;5107032;28;20270;-72
2023/05/04 08:21:36;;;;;;;0.20;0.20;;;;;;;;;;5104868;28;20469;-72
2023/05/04 08:24:03;;;;;;;0.03;0.03;;;;;;;;;;5107915;28;20210;-72
2023/05/04 08:26:29;;;;;;;0.07;0.07;;;;;;;;;;5103828;28;20444;-72
2023/05/04 08:29:04;;;;;;;0.10;0.10;;;;;;;;;;5111157;28;20231;-72
2023/05/04 08:31:32;;;;;;;0.07;0.07;;;;;;;;;;5108112;28;20261;-72
2023/05/04 08:33:58;;;;;;;0.10;0.10;;;;;;;;;;5112086;28;20455;-72
2023/05/04 08:36:25;;;;;;;0.10;0.10;;;;;;;;;;5107015;28;20251;-72
2023/05/04 08:38:52;;;;;;;0.23;0.23;;;;;;;;;;5113188;28;20217;-72
2023/05/04 08:41:18;;;;;;;0.33;0.33;;;;;;;;;;5106333;28;20486;-72
2023/05/04 08:43:48;;;;;;;0.10;0.10;;;;;;;;;;5113959;28;20276;-72
2023/05/04 08:46:15;;;;;;;0.10;0.10;;;;;;;;;;5105506;28;20259;-72
2023/05/04 08:48:43;;;;;;;0.00;0.00;;;;;;;;;;5114363;28;20211;-71
2023/05/04 08:51:10;;;;;;;0.10;0.10;;;;;;;;;;5105125;28;20263;-72
2023/05/04 08:53:39;;;;;;;0.00;0.00;;;;;;;;;;5114833;28;20212;-72
2023/05/04 08:56:08;;;;;;;0.10;0.10;;;;;;;;;;5104444;28;20333;-72
2023/05/04 08:58:36;;;;;;;0.10;0.10;;;;;;;;;;5114740;28;20223;-72
2023/05/04 09:01:04;;;;;;;0.10;0.10;;;;;;;;;;5103696;28;20267;-72
2023/05/04 09:03:30;;;;;;;0.00;0.00;;;;;;;;;;5115434;28;20489;-72
2023/05/04 09:05:58;;;;;;;0.10;0.10;;;;;;;;;;5102790;28;20240;-71
2023/05/04 09:08:25;;;;;;;0.50;0.50;;;;;;;;;;5115853;28;20277;-72
2023/05/04 09:10:51;;;;;;;0.10;0.10;;;;;;;;;;5102236;28;20242;-72
2023/05/04 09:13:17;;;;;;;0.10;0.10;;;;;;;;;;5116889;28;20205;-72
2023/05/04 09:15:53;;;;;;;0.10;0.10;;;;;;;;;;5100992;28;20304;-72
2023/05/04 09:18:20;;;;;;;0.00;0.00;;;;;;;;;;5116680;28;20256;-72
2023/05/04 09:20:47;;;;;;;0.00;0.00;;;;;;;;;;5101331;28;20247;-72
2023/05/04 09:23:16;;;;;;;0.03;0.03;;;;;;;;;;5117237;28;20276;-72
2023/05/04 09:25:46;;;;;;;0.10;0.10;;;;;;;;;;5100788;28;20568;-72
2023/05/04 09:28:12;;;;;;;0.10;0.10;;;;;;;;;;5117264;28;20226;-72
2023/05/04 09:30:39;;;;;;;0.57;0.57;;;;;;;;;;5100254;28;20308;-72
2023/05/04 09:33:05;;;;;;;0.10;0.10;;;;;;;;;;5118055;28;20234;-72
2023/05/04 09:35:32;;;;;;;0.00;0.00;;;;;;;;;;5099230;28;20257;-72
2023/05/04 09:37:58;;;;;;;0.10;0.10;;;;;;;;;;5118900;28;20684;-72
2023/05/04 09:40:32;;;;;;;0.10;0.10;;;;;;;;;;5097609;28;20375;-76
2023/05/04 09:42:59;;;;;;;0.00;0.00;;;;;;;;;;5118732;28;20239;-75
2023/05/04 09:45:26;;;;;;;0.10;0.10;;;;;;;;;;5098017;28;20253;-75
2023/05/04 09:47:53;;;;;;;0.10;0.10;;;;;;;;;;5119651;28;20484;-75
2023/05/04 09:50:21;;;;;;;0.10;0.10;;;;;;;;;;5097288;28;20248;-74
2023/05/04 09:52:48;;;;;;;0.10;0.10;;;;;;;;;;5120155;28;20383;-76
2023/05/04 09:55:15;;;;;;;0.10;0.10;;;;;;;;;;5096235;28;20453;-75
2023/05/04 09:57:44;;;;;;;0.10;0.10;;;;;;;;;;5120385;28;20260;-76
2023/05/04 10:00:12;;;;;;;0.03;0.03;;;;;;;;;;5095976;28;20273;-75
2023/05/04 10:02:38;;;;;;;0.55;0.55;;;;;;;;;;5120966;28;20201;-76
2023/05/04 10:05:06;;;;;;;0.10;0.10;;;;;;;;;;5105936;28;20204;-75
2023/05/04 10:07:33;;;;;;;0.10;0.10;;;;;;;;;;5110968;28;20303;-76
2023/05/04 10:09:59;;;;;;;0.10;0.10;;;;;;;;;;5105565;28;20211;-76
2023/05/04 10:12:26;;;;;;;0.00;0.00;;;;;;;;;;5111047;28;20240;-76
2023/05/04 10:14:53;;;;;;;0.10;0.10;;;;;;;;;;5105377;28;20208;-75
2023/05/04 10:17:23;;;;;;;0.00;0.00;;;;;;;;;;5110999;28;20437;-77
2023/05/04 10:19:57;;;;;;;0.10;0.10;;;;;;;;;;5105916;28;20222;-76
2023/05/04 10:22:33;;;;;;;1.48;1.48;;;;;;;;;;5110802;28;20307;-75
2023/05/04 10:25:17;;;;;;;0.30;0.30;;;;;;;;;;5105600;28;20505;-76
2023/05/04 10:27:49;;;;;;;0.00;0.00;;;;;;;;;;5104770;28;20241;-75
2023/05/04 10:30:17;;;;;;;0.00;0.00;;;;;;;;;;5096002;28;20259;-75
2023/05/04 10:32:43;;;;;;;0.00;0.00;;;;;;;;;;5120109;28;20200;-76
2023/05/04 10:35:10;;;;;;;0.00;0.00;;;;;;;;;;5095190;28;20205;-75
2023/05/04 10:37:37;;;;;;;0.00;0.00;;;;;;;;;;5120404;28;20240;-77
2023/05/04 10:40:05;;;;;;;0.10;0.10;;;;;;;;;;5105364;28;20233;-78
2023/05/04 10:42:40;;;;;;;0.00;0.00;;;;;;;;;;5110356;28;20247;-77
2023/05/04 10:45:08;;;;;;;0.00;0.00;;;;;;;;;;5105245;28;20212;-77
2023/05/04 10:47:38;;;;;;;0.10;0.10;;;;;;;;;;5093261;28;20236;-76
2023/05/04 10:50:06;;;;;;;0.00;0.00;;;;;;;;;;5104844;28;20199;-75
2023/05/04 10:52:33;;;;;;;0.32;0.32;;;;;;;;;;5092913;28;20213;-75
2023/05/04 10:55:00;;;;;;;0.00;0.00;;;;;;;;;;5104687;28;20231;-75
2023/05/04 10:57:27;;;;;;;0.10;0.10;;;;;;;;;;5110011;28;20429;-75
2023/05/04 10:59:54;;;;;;;0.00;0.00;;;;;;;;;;5105136;28;20208;-76
2023/05/04 11:02:22;;;;;;;0.00;0.00;;;;;;;;;;5110110;28;20233;-75
2023/05/04 11:04:58;;;;;;;0.10;0.10;;;;;;;;;;5105006;28;20211;-75
2023/05/04 11:07:32;;;;;;;0.10;0.10;;;;;;;;;;5109807;28;20308;-75
2023/05/04 11:09:59;;;;;;;0.00;0.00;;;;;;;;;;5104743;28;20222;-75
2023/05/04 11:12:25;;;;;;;0.00;0.00;;;;;;;;;;5109786;28;20243;-76
2023/05/04 11:14:52;;;;;;;0.22;0.22;;;;;;;;;;5104815;28;20248;-77
2023/05/04 11:17:18;;;;;;;0.00;0.00;;;;;;;;;;5109713;28;20450;-76
2023/05/04 11:19:49;;;;;;;0.10;0.10;;;;;;;;;;5104689;28;20438;-76
2023/05/04 11:22:17;;;;;;;0.00;0.00;;;;;;;;;;5109731;28;20275;-76
2023/05/04 11:24:44;;;;;;;0.00;0.00;;;;;;;;;;5104560;28;20282;-76
2023/05/04 11:27:20;;;;;;;0.10;0.10;;;;;;;;;;5109711;28;20508;-76
2023/05/04 11:29:52;;;;;;;0.00;0.00;;;;;;;;;;5104592;28;20258;-76
2023/05/04 11:32:18;;;;;;;0.00;0.00;;;;;;;;;;5109502;28;20240;-76
2023/05/04 11:34:45;;;;;;;0.30;0.30;;;;;;;;;;5104584;28;20230;-78
2023/05/04 11:37:12;;;;;;;0.00;0.00;;;;;;;;;;5109755;28;20249;-79
2023/05/04 11:39:41;;;;;;;0.10;0.10;;;;;;;;;;5104638;28;20225;-80
2023/05/04 11:42:07;;;;;;;0.10;0.10;;;;;;;;;;5109559;28;20238;-79
2023/05/04 11:44:34;;;;;;;0.00;0.00;;;;;;;;;;5104477;28;20378;-79
2023/05/04 11:47:01;;;;;;;0.00;0.00;;;;;;;;;;5108499;28;20236;-80
2023/05/04 11:49:29;;;;;;;0.10;0.10;;;;;;;;;;5105361;28;20554;-80
2023/05/04 11:52:05;;;;;;;0.00;0.00;;;;;;;;;;5107819;28;20316;-79
2023/05/04 11:54:32;;;;;;;0.20;0.20;;;;;;;;;;5104629;28;20202;-80
2023/05/04 11:57:01;;;;;;;0.00;0.00;;;;;;;;;;5108068;28;20234;-80
2023/05/04 11:59:28;;;;;;;0.00;0.00;;;;;;;;;;5104846;28;20207;-80
2023/05/04 12:01:55;;;;;;;0.00;0.00;;;;;;;;;;5107306;28;20245;-80
2023/05/04 12:04:22;;;;;;;0.03;0.03;;;;;;;;;;5105700;28;20230;-80
2023/05/04 12:06:48;;;;;;;0.00;0.00;;;;;;;;;;5106644;28;20300;-79
2023/05/04 12:09:15;;;;;;;0.20;0.20;;;;;;;;;;5106073;28;20210;-79
2023/05/04 12:11:41;;;;;;;0.00;0.00;;;;;;;;;;5105543;28;20311;-79
2023/05/04 12:14:10;;;;;;;0.00;0.00;;;;;;;;;;5107911;28;20389;-79
2023/05/04 12:16:37;;;;;;;0.00;0.00;;;;;;;;;;5105355;28;20291;-80
2023/05/04 12:19:04;;;;;;;1.65;0.30;;;;;;;;;;5108140;28;20266;-79
2023/05/04 12:21:34;;;;;;;0.00;0.00;;;;;;;;;;5104543;28;20241;-79
2023/05/04 12:24:02;;;;;;;0.00;0.00;;;;;;;;;;5108439;28;20211;-80
2023/05/04 12:26:28;;;;;;;0.00;0.00;;;;;;;;;;5103722;28;20246;-75
2023/05/04 12:28:55;;;;;;;0.00;0.00;;;;;;;;;;5108796;28;20293;-76
2023/05/04 12:31:23;;;;;;;0.00;0.00;;;;;;;;;;5102763;28;20253;-74
2023/05/04 12:33:49;;;;;;;0.00;0.00;;;;;;;;;;5109409;28;20277;-76
2023/05/04 12:36:16;;;;;;;0.10;0.10;;;;;;;;;;5102036;28;20241;-77
2023/05/04 12:38:43;;;;;;;0.00;0.00;;;;;;;;;;5110370;28;20407;-76
2023/05/04 12:41:10;;;;;;;0.00;0.00;;;;;;;;;;5101021;28;20240;-75
2023/05/04 12:43:37;;;;;;;0.00;0.00;;;;;;;;;;5111091;28;20203;-76
2023/05/04 12:46:03;;;;;;;0.85;0.85;;;;;;;;;;5100359;28;20245;-77
2023/05/04 12:48:31;;;;;;;0.10;0.10;;;;;;;;;;5111807;28;20227;-77
2023/05/04 12:50:58;;;;;;;0.05;0.05;;;;;;;;;;5094868;28;20238;-76
2023/05/04 12:53:28;;;;;;;0.00;0.00;;;;;;;;;;5112651;28;20281;-79
2023/05/04 12:55:55;;;;;;;0.00;0.00;;;;;;;;;;5099178;28;20238;-79
2023/05/04 12:58:21;;;;;;;0.00;0.00;;;;;;;;;;5112900;28;20223;-77
2023/05/04 13:00:48;;;;;;;0.00;0.00;;;;;;;;;;5097889;28;20304;-81
2023/05/04 13:03:16;;;;;;;0.00;0.00;;;;;;;;;;5113998;28;20572;-81
2023/05/04 13:05:44;;;;;;;0.00;0.00;;;;;;;;;;5097323;28;20260;-83
2023/05/04 13:08:10;;;;;;;0.00;0.00;;;;;;;;;;5114132;28;20302;-82
2023/05/04 13:10:36;;;;;;;0.10;0.10;;;;;;;;;;5096779;28;20273;-81
2023/05/04 13:13:04;;;;;;;0.05;0.05;;;;;;;;;;5115244;28;20237;-81
2023/05/04 13:15:30;;;;;;;0.10;0.10;;;;;;;;;;5097346;28;20249;-80
2023/05/04 13:17:57;;;;;;;0.10;0.10;;;;;;;;;;5119743;28;20525;-80
2023/05/04 13:20:25;;;;;;;0.00;0.00;;;;;;;;;;5097222;28;20256;-80
2023/05/04 13:22:54;;;;;;;0.20;0.20;;;;;;;;;;5120013;28;20201;-80
2023/05/04 13:25:20;;;;;;;0.10;0.10;;;;;;;;;;5097903;28;20233;-80
2023/05/04 13:27:46;;;;;;;0.00;0.00;;;;;;;;;;5120455;28;20278;-80
2023/05/04 13:30:13;;;;;;;0.00;0.00;;;;;;;;;;5096667;28;20218;-80
2023/05/04 13:32:40;;;;;;;0.00;0.00;;;;;;;;;;5121630;28;20261;-80
2023/05/04 13:35:07;;;;;;;0.00;0.00;;;;;;;;;;5104193;28;20205;-79
2023/05/04 13:37:34;;;;;;;0.10;0.10;;;;;;;;;;5121920;28;20218;-79
2023/05/04 13:40:02;;;;;;;0.08;0.08;;;;;;;;;;5106339;28;20198;-80
2023/05/04 13:42:28;;;;;;;0.00;0.00;;;;;;;;;;5111744;28;20291;-80
2023/05/04 13:44:56;;;;;;;0.10;0.10;;;;;;;;;;5106683;28;20209;-81
2023/05/04 13:47:22;;;;;;;0.00;0.00;;;;;;;;;;5111477;28;20477;-80
2023/05/04 13:49:49;;;;;;;0.00;0.00;;;;;;;;;;5106509;28;20390;-80
2023/05/04 13:52:16;;;;;;;0.30;0.30;;;;;;;;;;5111460;28;20532;-80
2023/05/04 13:54:42;;;;;;;0.00;0.00;;;;;;;;;;5106400;28;20237;-80
2023/05/04 13:57:10;;;;;;;0.10;0.10;;;;;;;;;;5111469;28;20451;-79
2023/05/04 13:59:36;;;;;;;0.20;0.20;;;;;;;;;;5106348;28;20246;-79
2023/05/04 14:02:02;;;;;;;0.08;0.08;;;;;;;;;;5110716;28;20260;-79
2023/05/04 14:04:29;;;;;;;0.03;0.03;;;;;;;;;;5106630;28;20273;-80
2023/05/04 14:06:56;;;;;;;0.00;0.00;;;;;;;;;;5109504;28;20251;-79
2023/05/04 14:09:22;;;;;;;0.08;0.08;;;;;;;;;;5107407;28;20229;-79
2023/05/04 14:11:49;;;;;;;0.30;0.28;;;;;;;;;;5108757;28;20285;-79
2023/05/04 14:14:17;;;;;;;0.10;0.10;;;;;;;;;;5108298;28;20220;-79
2023/05/04 14:16:43;;;;;;;0.10;0.10;;;;;;;;;;5107750;28;20295;-79
2023/05/04 14:19:09;;;;;;;0.00;0.00;;;;;;;;;;5108949;28;20268;-79
2023/05/04 14:21:36;;;;;;;0.00;0.00;;;;;;;;;;5106635;28;20284;-80
2023/05/04 14:24:02;;;;;;;0.20;0.20;;;;;;;;;;5109649;28;20270;-79
2023/05/04 14:26:28;;;;;;;0.10;0.10;;;;;;;;;;5105264;28;20307;-79
2023/05/04 14:28:55;;;;;;;0.20;0.20;;;;;;;;;;5110584;28;20228;-79
2023/05/04 14:31:23;;;;;;;0.00;0.00;;;;;;;;;;5104653;28;20285;-79
2023/05/04 14:33:49;;;;;;;0.10;0.10;;;;;;;;;;5111454;28;20209;-79
2023/05/04 14:36:16;;;;;;;0.00;0.00;;;;;;;;;;5103940;28;20440;-79
2023/05/04 14:38:42;;;;;;;0.10;0.10;;;;;;;;;;5111911;28;20283;-79
2023/05/04 14:41:09;;;;;;;0.00;0.00;;;;;;;;;;5102854;28;20454;-79
2023/05/04 14:43:35;;;;;;;0.10;0.10;;;;;;;;;;5112868;28;20204;-79